createdAt,value
2023-03-02T00:02:23.170Z,98476.81
2023-03-02T00:04:57.083Z,98477.28
2023-03-02T00:07:32.693Z,98469.56
2023-03-02T00:10:02.781Z,98470.06
2023-03-02T00:12:35.548Z,98458.13
2023-03-02T00:15:06.325Z,98462.22
2023-03-02T00:17:35.184Z,98452.66
2023-03-02T00:20:09.773Z,98447.75
2023-03-02T00:22:39.924Z,98457.66
2023-03-02T00:25:13.195Z,98449.19
2023-03-02T00:27:43.839Z,98452.59
2023-03-02T00:30:15.999Z,98448.03
2023-03-02T00:32:46.369Z,98440.56
2023-03-02T00:35:14.955Z,98441.38
2023-03-02T00:37:44.847Z,98450.59
2023-03-02T00:40:14.880Z,98452.00
2023-03-02T00:42:45.184Z,98453.72
2023-03-02T00:45:14.075Z,98451.06
2023-03-02T00:47:43.528Z,98434.44
2023-03-02T00:50:14.168Z,98440.19
2023-03-02T00:52:44.132Z,98446.16
2023-03-02T00:55:13.560Z,98436.47
2023-03-02T00:57:42.906Z,98432.75
2023-03-02T01:00:16.444Z,98441.16
2023-03-02T01:02:45.955Z,98434.72
2023-03-02T01:05:15.051Z,98423.72
2023-03-02T01:07:44.247Z,98433.41
2023-03-02T01:10:15.571Z,98434.53
2023-03-02T01:12:44.824Z,98425.44
2023-03-02T01:15:17.750Z,98424.41
2023-03-02T01:17:46.872Z,98423.34
2023-03-02T01:20:17.787Z,98420.91
2023-03-02T01:22:47.279Z,98410.50
2023-03-02T01:25:16.209Z,98420.78
2023-03-02T01:27:46.126Z,98415.84
2023-03-02T01:30:18.106Z,98412.00
2023-03-02T01:32:47.620Z,98417.38
2023-03-02T01:35:18.406Z,98410.03
2023-03-02T01:37:48.889Z,98411.88
2023-03-02T01:40:18.295Z,98407.28
2023-03-02T01:42:59.171Z,98406.69
2023-03-02T01:45:54.255Z,98402.41
2023-03-02T01:48:31.136Z,98402.19
2023-03-02T01:51:02.101Z,98397.78
2023-03-02T01:53:36.800Z,98407.31
2023-03-02T01:56:08.086Z,98402.31
2023-03-02T01:58:38.888Z,98393.66
2023-03-02T02:01:15.499Z,98393.78
2023-03-02T02:03:48.710Z,98395.63
2023-03-02T02:06:25.912Z,98392.59
2023-03-02T02:08:58.765Z,98394.00
2023-03-02T02:11:28.695Z,98396.44
2023-03-02T02:14:01.263Z,98385.34
2023-03-02T02:16:35.901Z,98392.97
2023-03-02T02:19:13.846Z,98392.38
2023-03-02T02:21:43.813Z,98384.66
2023-03-02T02:24:22.780Z,98385.56
2023-03-02T02:26:59.390Z,98383.13
2023-03-02T02:29:34.043Z,98377.16
2023-03-02T02:32:12.444Z,98387.44
2023-03-02T02:34:47.399Z,98373.66
2023-03-02T02:37:23.411Z,98372.03
2023-03-02T02:39:53.864Z,98369.47
2023-03-02T02:42:31.519Z,98368.50
2023-03-02T02:45:18.997Z,98373.78
2023-03-02T02:47:48.219Z,98380.44
2023-03-02T02:50:24.294Z,98373.22
2023-03-02T02:53:00.715Z,98368.78
2023-03-02T02:55:31.009Z,98378.00
2023-03-02T02:58:10.695Z,98369.13
2023-03-02T03:00:40.509Z,98373.94
2023-03-02T03:03:29.492Z,98382.34
2023-03-02T03:06:00.946Z,98375.38
2023-03-02T03:09:04.131Z,98378.63
2023-03-02T03:11:36.736Z,98378.63
2023-03-02T03:14:11.499Z,98385.19
2023-03-02T03:16:44.701Z,98381.47
2023-03-02T03:19:21.462Z,98377.97
2023-03-02T03:21:52.944Z,98381.22
2023-03-02T03:24:23.345Z,98376.06
2023-03-02T03:26:54.200Z,98371.84
2023-03-02T03:29:27.465Z,98376.97
2023-03-02T03:31:59.868Z,98376.53
2023-03-02T03:34:31.133Z,98374.88
2023-03-02T03:37:03.056Z,98364.72
2023-03-02T03:39:33.446Z,98362.03
2023-03-02T03:42:02.915Z,98358.75
2023-03-02T03:44:34.003Z,98363.31
2023-03-02T03:47:04.495Z,98359.00
2023-03-02T03:49:34.813Z,98362.34
2023-03-02T03:52:05.200Z,98353.72
2023-03-02T03:54:34.629Z,98351.38
2023-03-02T03:57:04.067Z,98348.94
2023-03-02T03:59:36.059Z,98346.56
2023-03-02T04:02:06.109Z,98349.72
2023-03-02T04:04:37.606Z,98344.22
2023-03-02T04:07:07.260Z,98345.06
2023-03-02T04:09:38.527Z,98349.50
2023-03-02T04:12:09.906Z,98349.81
2023-03-02T04:14:40.361Z,98351.72
2023-03-02T04:17:09.756Z,98358.09
2023-03-02T04:19:39.354Z,98358.91
2023-03-02T04:22:09.415Z,98369.19
2023-03-02T04:24:39.137Z,98358.69
2023-03-02T04:27:09.253Z,98360.34
2023-03-02T04:29:41.051Z,98361.50
2023-03-02T04:32:10.617Z,98361.59
2023-03-02T04:34:40.147Z,98355.06
2023-03-02T04:37:10.557Z,98363.38
2023-03-02T04:39:41.024Z,98352.13
2023-03-02T04:42:11.481Z,98346.56
2023-03-02T04:44:42.251Z,98349.72
2023-03-02T04:47:12.638Z,98353.09
2023-03-02T04:49:42.261Z,98356.38
2023-03-02T04:52:11.778Z,98352.91
2023-03-02T04:54:42.200Z,98349.38
2023-03-02T04:57:11.632Z,98349.97
2023-03-02T04:59:43.004Z,98351.63
2023-03-02T05:02:13.205Z,98342.16
2023-03-02T05:04:42.435Z,98350.56
2023-03-02T05:07:11.798Z,98353.03
2023-03-02T05:09:41.173Z,98349.50
2023-03-02T05:12:10.974Z,98344.72
2023-03-02T05:14:43.864Z,98351.38
2023-03-02T05:17:15.402Z,98348.72
2023-03-02T05:19:45.035Z,98348.00
2023-03-02T05:22:15.137Z,98349.41
2023-03-02T05:24:45.641Z,98350.31
2023-03-02T05:27:15.406Z,98341.69
2023-03-02T05:29:47.302Z,98351.97
2023-03-02T05:32:16.241Z,98346.13
2023-03-02T05:34:46.319Z,98348.00
2023-03-02T05:37:15.271Z,98348.00
2023-03-02T05:39:44.126Z,98349.41
2023-03-02T05:42:14.230Z,98353.34
2023-03-02T05:44:45.082Z,98355.94
2023-03-02T05:47:14.045Z,98362.00
2023-03-02T05:49:43.104Z,98365.63
2023-03-02T05:52:12.564Z,98365.00
2023-03-02T05:54:43.000Z,98357.22
2023-03-02T05:57:11.354Z,98347.03
2023-03-02T05:59:41.727Z,98355.47
2023-03-02T06:02:12.999Z,98358.22
2023-03-02T06:04:43.319Z,98369.34
2023-03-02T06:07:13.908Z,98363.38
2023-03-02T06:09:44.179Z,98366.63
2023-03-02T06:12:13.177Z,98360.56
2023-03-02T06:14:43.579Z,98363.13
2023-03-02T06:17:14.381Z,98366.63
2023-03-02T06:19:43.786Z,98368.16
2023-03-02T06:22:13.816Z,98369.19
2023-03-02T06:24:43.282Z,98369.88
2023-03-02T06:27:13.626Z,98370.72
2023-03-02T06:29:43.330Z,98373.28
2023-03-02T06:32:14.992Z,98373.88
2023-03-02T06:34:45.060Z,98379.63
2023-03-02T06:37:14.825Z,98370.38
2023-03-02T06:39:45.276Z,98376.56
2023-03-02T06:42:15.666Z,98379.25
2023-03-02T06:44:45.825Z,98382.03
2023-03-02T06:47:16.762Z,98381.00
2023-03-02T06:49:46.840Z,98388.47
2023-03-02T06:52:16.561Z,98385.09
2023-03-02T06:54:46.438Z,98390.94
2023-03-02T06:57:15.848Z,98389.28
2023-03-02T06:59:46.071Z,98383.13
2023-03-02T07:02:17.448Z,98383.81
2023-03-02T07:04:47.874Z,98386.31
2023-03-02T07:07:17.653Z,98393.06
2023-03-02T07:09:48.161Z,98386.75
2023-03-02T07:12:19.073Z,98393.41
2023-03-02T07:14:49.202Z,98395.66
2023-03-02T07:17:21.695Z,98391.94
2023-03-02T07:19:51.158Z,98394.28
2023-03-02T07:22:21.398Z,98392.41
2023-03-02T07:24:52.153Z,98393.00
2023-03-02T07:27:22.514Z,98391.97
2023-03-02T07:29:52.351Z,98385.78
2023-03-02T07:32:24.130Z,98388.00
2023-03-02T07:34:54.186Z,98388.72
2023-03-02T07:37:25.168Z,98393.63
2023-03-02T07:39:55.884Z,98391.78
2023-03-02T07:42:27.672Z,98394.78
2023-03-02T07:44:58.258Z,98392.94
2023-03-02T07:47:29.462Z,98396.91
2023-03-02T07:49:58.181Z,98391.56
2023-03-02T07:52:31.037Z,98393.88
2023-03-02T07:55:02.243Z,98396.22
2023-03-02T07:57:31.982Z,98389.09
2023-03-02T08:00:02.084Z,98388.72
2023-03-02T08:02:34.378Z,98388.53
2023-03-02T08:05:04.508Z,98389.09
2023-03-02T08:07:34.772Z,98384.41
2023-03-02T08:10:05.688Z,98384.91
2023-03-02T08:12:35.784Z,98383.59
2023-03-02T08:15:08.292Z,98385.00
2023-03-02T08:17:40.068Z,98379.59
2023-03-02T08:20:11.206Z,98395.28
2023-03-02T08:22:41.168Z,98384.50
2023-03-02T08:25:11.974Z,98389.88
2023-03-02T08:27:42.039Z,98384.25
2023-03-02T08:30:14.678Z,98384.47
2023-03-02T08:32:44.842Z,98383.06
2023-03-02T08:35:14.314Z,98370.63
2023-03-02T08:37:44.866Z,98367.19
2023-03-02T08:40:15.994Z,98373.75
2023-03-02T08:42:45.020Z,98375.81
2023-03-02T08:45:14.654Z,98373.56
2023-03-02T08:47:46.871Z,98364.41
2023-03-02T08:50:15.860Z,98364.97
2023-03-02T08:52:44.866Z,98358.38
2023-03-02T08:55:14.468Z,98362.19
2023-03-02T08:57:45.544Z,98355.50
2023-03-02T09:00:18.103Z,98364.34
2023-03-02T09:02:49.422Z,98362.09
2023-03-02T09:05:20.089Z,98357.38
2023-03-02T09:07:50.545Z,98353.50
2023-03-02T09:10:20.716Z,98351.13
2023-03-02T09:12:50.130Z,98354.56
2023-03-02T09:15:20.405Z,98358.72
2023-03-02T09:17:50.977Z,98345.75
2023-03-02T09:20:19.600Z,98349.97
2023-03-02T09:22:51.478Z,98342.09
2023-03-02T09:25:21.945Z,98353.69
2023-03-02T09:27:51.143Z,98351.13
2023-03-02T09:30:22.270Z,98341.63
2023-03-02T09:32:53.682Z,98335.78
2023-03-02T09:35:24.768Z,98339.56
2023-03-02T09:37:54.299Z,98341.22
2023-03-02T09:40:28.069Z,98341.38
2023-03-02T09:43:14.257Z,98349.66
2023-03-02T09:46:13.603Z,98346.94
2023-03-02T09:49:09.247Z,98342.88
2023-03-02T09:51:49.035Z,98339.59
2023-03-02T09:54:24.775Z,98340.13
2023-03-02T09:56:59.660Z,98333.97
2023-03-02T09:59:32.776Z,98342.16
2023-03-02T10:02:12.423Z,98340.78
2023-03-02T10:04:49.770Z,98340.09
2023-03-02T10:07:28.357Z,98325.38
2023-03-02T10:10:24.539Z,98329.03
2023-03-02T10:13:11.446Z,98336.13
2023-03-02T10:15:51.190Z,98336.22
2023-03-02T10:18:30.783Z,98334.84
2023-03-02T10:21:08.592Z,98331.53
2023-03-02T10:23:46.896Z,98336.44
2023-03-02T10:26:29.301Z,98332.84
2023-03-02T10:29:25.404Z,98323.00
2023-03-02T10:32:02.548Z,98326.13
2023-03-02T10:34:33.031Z,98321.88
2023-03-02T10:37:03.453Z,98315.16
2023-03-02T10:39:33.914Z,98321.81
2023-03-02T10:42:08.540Z,98319.63
2023-03-02T10:44:43.142Z,98315.50
2023-03-02T10:47:23.468Z,98317.50
2023-03-02T10:49:55.410Z,98315.13
2023-03-02T10:52:28.721Z,98312.41
2023-03-02T10:55:05.918Z,98308.53
2023-03-02T10:57:42.108Z,98316.19
2023-03-02T11:00:24.379Z,98316.69
2023-03-02T11:02:57.288Z,98311.72
2023-03-02T11:05:35.934Z,98322.50
2023-03-02T11:08:11.521Z,98316.06
2023-03-02T11:10:43.519Z,98308.50
2023-03-02T11:13:24.718Z,98310.50
2023-03-02T11:15:57.577Z,98297.34
2023-03-02T11:18:32.814Z,98307.47
2023-03-02T11:21:06.950Z,98314.13
2023-03-02T11:23:56.071Z,98310.00
2023-03-02T11:26:29.774Z,98308.59
2023-03-02T11:29:08.801Z,98309.56
2023-03-02T11:31:45.827Z,98309.56
2023-03-02T11:34:32.683Z,98297.28
2023-03-02T11:37:17.707Z,98297.34
2023-03-02T11:40:14.562Z,98292.34
2023-03-02T11:42:48.120Z,98295.34
2023-03-02T11:45:24.021Z,98295.16
2023-03-02T11:48:03.146Z,98286.28
2023-03-02T11:50:36.526Z,98281.91
2023-03-02T11:53:13.279Z,98278.00
2023-03-02T11:55:49.084Z,98276.91
2023-03-02T11:58:23.010Z,98273.88
2023-03-02T12:00:55.394Z,98279.44
2023-03-02T12:03:41.758Z,98270.06
2023-03-02T12:06:30.018Z,98259.38
2023-03-02T12:09:30.944Z,98256.16
2023-03-02T12:12:34.036Z,98259.09
2023-03-02T12:15:04.350Z,98255.69
2023-03-02T12:17:37.204Z,98248.72
2023-03-02T12:20:26.981Z,98260.44
2023-03-02T12:23:08.005Z,98253.63
2023-03-02T12:25:51.897Z,98245.69
2023-03-02T12:28:35.295Z,98246.56
2023-03-02T12:31:09.736Z,98249.81
2023-03-02T12:33:47.824Z,98241.06
2023-03-02T12:36:27.183Z,98240.25
2023-03-02T12:39:23.892Z,98238.13
2023-03-02T12:42:41.196Z,98235.03
2023-03-02T12:45:35.131Z,98228.06
2023-03-02T12:48:23.653Z,98221.41
2023-03-02T12:50:58.081Z,98214.75
2023-03-02T12:53:27.513Z,98213.78
2023-03-02T12:55:56.517Z,98217.69
2023-03-02T12:58:29.870Z,98208.25
2023-03-02T13:01:03.465Z,98207.91
2023-03-02T13:03:34.039Z,98207.59
2023-03-02T13:06:06.083Z,98206.63
2023-03-02T13:08:35.494Z,98206.44
2023-03-02T13:11:05.730Z,98205.13
2023-03-02T13:13:59.075Z,98209.03
2023-03-02T13:16:32.506Z,98197.81
2023-03-02T13:19:05.401Z,98196.19
2023-03-02T13:21:38.241Z,98189.00
2023-03-02T13:24:32.594Z,98192.75
2023-03-02T13:27:07.695Z,98193.22
2023-03-02T13:29:38.609Z,98183.44
2023-03-02T13:32:22.917Z,98182.97
2023-03-02T13:34:56.902Z,98175.44
2023-03-02T13:37:41.039Z,98180.16
2023-03-02T13:40:35.436Z,98180.97
2023-03-02T13:43:09.304Z,98181.88
2023-03-02T13:45:41.525Z,98171.78
2023-03-02T13:48:21.403Z,98173.69
2023-03-02T13:50:59.065Z,98178.41
2023-03-02T13:53:31.212Z,98175.63
2023-03-02T13:56:03.520Z,98169.59
2023-03-02T13:58:40.011Z,98169.25
2023-03-02T14:01:09.078Z,98165.31
2023-03-02T14:03:40.557Z,98175.56
2023-03-02T14:06:11.208Z,98171.78
2023-03-02T14:08:41.256Z,98178.41
2023-03-02T14:11:12.940Z,98170.03
2023-03-02T14:13:47.355Z,98167.41
2023-03-02T14:16:19.274Z,98165.44
2023-03-02T14:18:53.011Z,98159.19
2023-03-02T14:21:23.861Z,98164.56
2023-03-02T14:23:54.850Z,98165.69
2023-03-02T14:26:35.149Z,98163.41
2023-03-02T14:29:23.316Z,98163.50
2023-03-02T14:31:53.765Z,98166.72
2023-03-02T14:34:24.774Z,98162.56
2023-03-02T14:36:57.916Z,98159.03
2023-03-02T14:39:35.450Z,98166.22
2023-03-02T14:42:05.601Z,98161.19
2023-03-02T14:44:35.918Z,98157.03
2023-03-02T14:47:05.368Z,98154.41
2023-03-02T14:49:36.251Z,98153.72
2023-03-02T14:52:10.742Z,98152.63
2023-03-02T14:54:47.723Z,98154.28
2023-03-02T14:57:21.262Z,98151.28
2023-03-02T14:59:51.212Z,98152.53
2023-03-02T15:02:26.147Z,98155.31
2023-03-02T15:04:57.944Z,98152.53
2023-03-02T15:07:28.959Z,98151.91
2023-03-02T15:10:00.317Z,98152.72
2023-03-02T15:12:29.744Z,98150.91
2023-03-02T15:14:58.293Z,98152.53
2023-03-02T15:17:28.337Z,98157.78
2023-03-02T15:19:59.269Z,98157.41
2023-03-02T15:22:29.409Z,98157.03
2023-03-02T15:24:59.379Z,98154.59
2023-03-02T15:27:28.451Z,98159.63
2023-03-02T15:29:59.512Z,98161.25
2023-03-02T15:32:29.537Z,98158.00
2023-03-02T15:35:00.657Z,98162.91
2023-03-02T15:37:29.784Z,98169.13
2023-03-02T15:39:59.429Z,98170.31
2023-03-02T15:42:28.467Z,98160.00
2023-03-02T15:44:57.520Z,98161.00
2023-03-02T15:47:27.265Z,98163.63
2023-03-02T15:49:57.152Z,98158.22
2023-03-02T15:52:27.544Z,98169.28
2023-03-02T15:54:57.477Z,98168.03
2023-03-02T15:57:26.416Z,98159.75
2023-03-02T15:59:56.393Z,98163.38
2023-03-02T16:02:26.368Z,98167.59
2023-03-02T16:04:57.205Z,98163.75
2023-03-02T16:07:27.468Z,98167.34
2023-03-02T16:09:57.924Z,98171.69
2023-03-02T16:12:28.109Z,98171.06
2023-03-02T16:14:57.068Z,98179.00
2023-03-02T16:17:28.029Z,98181.09
2023-03-02T16:19:57.467Z,98174.97
2023-03-02T16:22:28.315Z,98183.72
2023-03-02T16:24:58.220Z,98182.28
2023-03-02T16:27:28.333Z,98183.97
2023-03-02T16:29:58.001Z,98181.63
2023-03-02T16:32:27.028Z,98182.16
2023-03-02T16:34:56.723Z,98194.66
2023-03-02T16:37:27.671Z,98199.59
2023-03-02T16:39:58.763Z,98198.69
2023-03-02T16:42:30.943Z,98191.41
2023-03-02T16:45:01.146Z,98202.38
2023-03-02T16:47:30.871Z,98203.72
2023-03-02T16:50:01.064Z,98214.50
2023-03-02T16:52:31.941Z,98211.13
2023-03-02T16:55:02.132Z,98216.91
2023-03-02T16:57:31.295Z,98222.19
2023-03-02T17:00:01.216Z,98223.88
2023-03-02T17:02:32.363Z,98237.63
2023-03-02T17:05:01.654Z,98231.94
2023-03-02T17:07:32.058Z,98236.03
2023-03-02T17:10:01.140Z,98239.53
2023-03-02T17:12:31.261Z,98243.25
2023-03-02T17:15:00.437Z,98249.19
2023-03-02T17:17:30.000Z,98246.59
2023-03-02T17:20:00.622Z,98261.00
2023-03-02T17:22:31.898Z,98257.59
2023-03-02T17:25:02.380Z,98260.69
2023-03-02T17:27:33.033Z,98262.34
2023-03-02T17:30:02.563Z,98270.38
2023-03-02T17:32:32.638Z,98274.16
2023-03-02T17:35:02.540Z,98277.44
2023-03-02T17:37:33.118Z,98284.31
2023-03-02T17:40:03.282Z,98278.09
2023-03-02T17:42:33.358Z,98280.38
2023-03-02T17:45:02.723Z,98292.78
2023-03-02T17:47:33.526Z,98292.78
2023-03-02T17:50:06.210Z,98294.25
2023-03-02T17:52:36.026Z,98298.66
2023-03-02T17:55:06.385Z,98298.50
2023-03-02T17:57:36.316Z,98298.84
2023-03-02T18:00:09.374Z,98307.63
2023-03-02T18:02:39.348Z,98303.88
2023-03-02T18:05:10.514Z,98305.94
2023-03-02T18:07:41.324Z,98306.94
2023-03-02T18:10:13.684Z,98311.00
2023-03-02T18:12:43.346Z,98320.72
2023-03-02T18:15:14.407Z,98319.72
2023-03-02T18:17:45.697Z,98329.44
2023-03-02T18:20:15.457Z,98321.63
2023-03-02T18:22:46.599Z,98332.88
2023-03-02T18:25:16.552Z,98332.53
2023-03-02T18:27:46.851Z,98330.44
2023-03-02T18:30:16.933Z,98338.09
2023-03-02T18:32:47.059Z,98344.50
2023-03-02T18:35:16.497Z,98335.56
2023-03-02T18:37:48.841Z,98341.00
2023-03-02T18:40:19.542Z,98335.13
2023-03-02T18:42:48.634Z,98341.44
2023-03-02T18:45:25.664Z,98339.25
2023-03-02T18:47:55.751Z,98352.41
2023-03-02T18:50:26.366Z,98346.00
2023-03-02T18:52:57.293Z,98350.78
2023-03-02T18:55:27.600Z,98353.75
2023-03-02T18:57:57.204Z,98354.72
2023-03-02T19:00:28.707Z,98359.59
2023-03-02T19:02:58.305Z,98367.25
2023-03-02T19:05:30.437Z,98364.72
2023-03-02T19:08:02.793Z,98363.75
2023-03-02T19:10:33.635Z,98367.31
2023-03-02T19:13:02.904Z,98366.88
2023-03-02T19:15:33.783Z,98372.16
2023-03-02T19:18:02.978Z,98366.66
2023-03-02T19:20:31.482Z,98373.06
2023-03-02T19:23:02.946Z,98372.16
2023-03-02T19:25:33.626Z,98376.44
2023-03-02T19:28:03.586Z,98377.69
2023-03-02T19:30:34.771Z,98375.09
2023-03-02T19:33:06.097Z,98379.16
2023-03-02T19:35:35.911Z,98374.41
2023-03-02T19:38:06.380Z,98381.28
2023-03-02T19:40:37.766Z,98383.75
2023-03-02T19:43:07.761Z,98382.16
2023-03-02T19:45:38.681Z,98389.38
2023-03-02T19:48:14.316Z,98393.94
2023-03-02T19:50:45.524Z,98395.34
2023-03-02T19:53:17.141Z,98396.03
2023-03-02T19:55:45.786Z,98397.50
2023-03-02T19:58:17.343Z,98404.63
2023-03-02T20:00:48.395Z,98400.69
2023-03-02T20:03:17.903Z,98410.34
2023-03-02T20:05:46.352Z,98407.78
2023-03-02T20:08:17.870Z,98404.38
2023-03-02T20:10:50.009Z,98405.19
2023-03-02T20:13:19.625Z,98407.63
2023-03-02T20:15:49.598Z,98402.19
2023-03-02T20:18:21.307Z,98404.94
2023-03-02T20:20:50.806Z,98395.94
2023-03-02T20:23:22.730Z,98398.78
2023-03-02T20:25:52.185Z,98403.41
2023-03-02T20:28:25.151Z,98409.13
2023-03-02T20:30:58.598Z,98409.13
2023-03-02T20:33:32.202Z,98411.44
2023-03-02T20:36:03.944Z,98413.47
2023-03-02T20:38:38.895Z,98418.03
2023-03-02T20:41:11.771Z,98417.66
2023-03-02T20:43:42.162Z,98424.75
2023-03-02T20:46:20.328Z,98424.75
2023-03-02T20:48:49.927Z,98422.53
2023-03-02T20:51:19.244Z,98418.19
2023-03-02T20:53:50.669Z,98424.00
2023-03-02T20:56:20.352Z,98421.16
2023-03-02T20:58:50.734Z,98433.59
2023-03-02T21:01:21.809Z,98434.41
2023-03-02T21:03:52.392Z,98434.78
2023-03-02T21:06:21.508Z,98427.47
2023-03-02T21:08:53.436Z,98436.00
2023-03-02T21:11:23.171Z,98435.44
2023-03-02T21:13:51.771Z,98441.38
2023-03-02T21:16:27.325Z,98437.34
2023-03-02T21:18:56.519Z,98443.44
2023-03-02T21:21:40.657Z,98433.00
2023-03-02T21:24:17.156Z,98439.06
2023-03-02T21:26:47.557Z,98432.63
2023-03-02T21:29:17.845Z,98440.94
2023-03-02T21:31:48.522Z,98435.09
2023-03-02T21:34:18.974Z,98432.22
2023-03-02T21:36:48.350Z,98437.44
2023-03-02T21:39:18.265Z,98440.19
2023-03-02T21:41:49.297Z,98436.31
2023-03-02T21:44:19.947Z,98431.16
2023-03-02T21:46:48.995Z,98427.59
2023-03-02T21:49:22.379Z,98426.47
2023-03-02T21:51:52.447Z,98433.00
2023-03-02T21:54:23.251Z,98430.28
2023-03-02T21:56:52.235Z,98430.53
2023-03-02T21:59:22.444Z,98430.66
2023-03-02T22:01:52.479Z,98432.09
2023-03-02T22:04:22.636Z,98431.31
2023-03-02T22:06:52.083Z,98433.44
2023-03-02T22:09:23.205Z,98430.47
2023-03-02T22:11:53.395Z,98438.28
2023-03-02T22:14:23.204Z,98429.16
2023-03-02T22:16:52.178Z,98431.22
2023-03-02T22:19:27.232Z,98428.22
2023-03-02T22:21:57.985Z,98432.28
2023-03-02T22:24:31.524Z,98433.88
2023-03-02T22:27:10.683Z,98429.84
2023-03-02T22:29:44.725Z,98419.75
2023-03-02T22:32:20.100Z,98425.69
2023-03-02T22:34:53.600Z,98436.31
2023-03-02T22:37:25.682Z,98424.03
2023-03-02T22:40:01.997Z,98428.19
2023-03-02T22:42:31.908Z,98426.91
2023-03-02T22:45:13.655Z,98428.81
2023-03-02T22:47:44.294Z,98435.38
2023-03-02T22:50:23.816Z,98431.81
2023-03-02T22:52:54.954Z,98431.81
2023-03-02T22:55:38.848Z,98433.97
2023-03-02T22:58:33.155Z,98429.75
2023-03-02T23:01:04.613Z,98429.66
2023-03-02T23:03:48.149Z,98427.31
2023-03-02T23:06:31.411Z,98434.69
2023-03-02T23:09:02.794Z,98437.56
2023-03-02T23:11:39.153Z,98431.69
2023-03-02T23:14:26.901Z,98436.13
2023-03-02T23:17:01.464Z,98435.34
2023-03-02T23:19:32.982Z,98432.88
2023-03-02T23:22:02.785Z,98437.50
2023-03-02T23:24:31.663Z,98439.59
2023-03-02T23:27:02.591Z,98430.56
2023-03-02T23:29:31.634Z,98437.34
2023-03-02T23:32:02.243Z,98432.19
2023-03-02T23:34:32.055Z,98434.56
2023-03-02T23:37:01.161Z,98443.31
2023-03-02T23:39:29.665Z,98436.91
2023-03-02T23:42:00.840Z,98441.09
2023-03-02T23:44:30.783Z,98442.91
2023-03-02T23:47:00.271Z,98447.09
2023-03-02T23:49:30.138Z,98447.66
2023-03-02T23:51:59.779Z,98435.75
2023-03-02T23:54:28.754Z,98432.00
2023-03-02T23:56:59.176Z,98444.63
2023-03-02T23:59:30.475Z,98439.25
